sensor_id;sensor_type;location;lat;lon;timestamp;P1;durP1;ratioP1;P2;durP2;ratioP2
18653;SDS011;9456;47.824;16.228;2023-04-08T00:00:13;33.53;;;25.60;;
18653;SDS011;9456;47.824;16.228;2023-04-08T00:02:42;32.87;;;25.73;;
18653;SDS011;9456;47.824;16.228;2023-04-08T00:05:11;37.70;;;26.30;;
18653;SDS011;9456;47.824;16.228;2023-04-08T00:07:40;34.80;;;25.13;;
18653;SDS011;9456;47.824;16.228;2023-04-08T00:10:09;31.70;;;24.00;;
18653;SDS011;9456;47.824;16.228;2023-04-08T00:12:38;35.90;;;26.00;;
18653;SDS011;9456;47.824;16.228;2023-04-08T00:15:08;33.93;;;25.90;;
18653;SDS011;9456;47.824;16.228;2023-04-08T00:17:38;34.10;;;25.97;;
18653;SDS011;9456;47.824;16.228;2023-04-08T00:20:08;35.73;;;26.50;;
18653;SDS011;9456;47.824;16.228;2023-04-08T00:22:37;38.23;;;26.77;;
18653;SDS011;9456;47.824;16.228;2023-04-08T00:25:07;36.70;;;25.30;;
18653;SDS011;9456;47.824;16.228;2023-04-08T00:27:36;31.00;;;24.50;;
18653;SDS011;9456;47.824;16.228;2023-04-08T00:30:06;38.03;;;24.77;;
18653;SDS011;9456;47.824;16.228;2023-04-08T00:32:35;29.77;;;23.10;;
18653;SDS011;9456;47.824;16.228;2023-04-08T00:35:05;31.93;;;23.87;;
18653;SDS011;9456;47.824;16.228;2023-04-08T00:37:35;37.00;;;26.47;;
18653;SDS011;9456;47.824;16.228;2023-04-08T00:40:04;37.43;;;25.97;;
18653;SDS011;9456;47.824;16.228;2023-04-08T00:42:34;35.17;;;25.23;;
18653;SDS011;9456;47.824;16.228;2023-04-08T00:45:04;32.30;;;23.77;;
18653;SDS011;9456;47.824;16.228;2023-04-08T00:47:34;33.93;;;24.13;;
18653;SDS011;9456;47.824;16.228;2023-04-08T00:50:04;30.23;;;23.10;;
18653;SDS011;9456;47.824;16.228;2023-04-08T00:52:38;32.67;;;23.87;;
18653;SDS011;9456;47.824;16.228;2023-04-08T00:55:07;30.63;;;23.00;;
18653;SDS011;9456;47.824;16.228;2023-04-08T00:57:36;30.30;;;22.63;;
18653;SDS011;9456;47.824;16.228;2023-04-08T01:00:07;29.80;;;23.93;;
18653;SDS011;9456;47.824;16.228;2023-04-08T01:02:38;29.17;;;23.03;;
18653;SDS011;9456;47.824;16.228;2023-04-08T01:05:08;29.27;;;22.73;;
18653;SDS011;9456;47.824;16.228;2023-04-08T01:07:37;33.00;;;22.27;;
18653;SDS011;9456;47.824;16.228;2023-04-08T01:10:07;28.20;;;22.47;;
18653;SDS011;9456;47.824;16.228;2023-04-08T01:12:36;32.80;;;24.53;;
18653;SDS011;9456;47.824;16.228;2023-04-08T01:15:06;34.30;;;23.87;;
18653;SDS011;9456;47.824;16.228;2023-04-08T01:17:35;35.43;;;24.73;;
18653;SDS011;9456;47.824;16.228;2023-04-08T01:20:05;33.43;;;25.73;;
18653;SDS011;9456;47.824;16.228;2023-04-08T01:22:40;35.20;;;24.47;;
18653;SDS011;9456;47.824;16.228;2023-04-08T01:25:09;50.00;;;29.60;;
18653;SDS011;9456;47.824;16.228;2023-04-08T01:27:38;59.80;;;35.00;;
18653;SDS011;9456;47.824;16.228;2023-04-08T01:30:08;44.43;;;29.17;;
18653;SDS011;9456;47.824;16.228;2023-04-08T01:32:37;42.40;;;29.73;;
18653;SDS011;9456;47.824;16.228;2023-04-08T01:35:06;38.17;;;27.70;;
18653;SDS011;9456;47.824;16.228;2023-04-08T01:37:35;35.23;;;29.53;;
18653;SDS011;9456;47.824;16.228;2023-04-08T01:40:05;36.73;;;30.30;;
18653;SDS011;9456;47.824;16.228;2023-04-08T01:42:35;38.90;;;30.87;;
18653;SDS011;9456;47.824;16.228;2023-04-08T01:45:05;35.50;;;28.77;;
18653;SDS011;9456;47.824;16.228;2023-04-08T01:47:34;35.50;;;30.97;;
18653;SDS011;9456;47.824;16.228;2023-04-08T01:50:04;39.93;;;33.47;;
18653;SDS011;9456;47.824;16.228;2023-04-08T01:52:34;38.47;;;31.63;;
18653;SDS011;9456;47.824;16.228;2023-04-08T01:55:04;37.83;;;33.60;;
18653;SDS011;9456;47.824;16.228;2023-04-08T01:57:34;45.10;;;38.00;;
18653;SDS011;9456;47.824;16.228;2023-04-08T02:00:04;50.43;;;41.73;;
18653;SDS011;9456;47.824;16.228;2023-04-08T02:02:33;53.97;;;44.17;;
18653;SDS011;9456;47.824;16.228;2023-04-08T02:05:02;53.50;;;43.57;;
18653;SDS011;9456;47.824;16.228;2023-04-08T02:07:32;55.63;;;44.33;;
18653;SDS011;9456;47.824;16.228;2023-04-08T02:10:01;50.87;;;43.63;;
18653;SDS011;9456;47.824;16.228;2023-04-08T02:12:30;51.50;;;42.30;;
18653;SDS011;9456;47.824;16.228;2023-04-08T02:15:00;50.37;;;40.57;;
18653;SDS011;9456;47.824;16.228;2023-04-08T02:17:30;47.97;;;37.97;;
18653;SDS011;9456;47.824;16.228;2023-04-08T02:20:00;45.67;;;38.63;;
18653;SDS011;9456;47.824;16.228;2023-04-08T02:22:30;44.97;;;38.23;;
18653;SDS011;9456;47.824;16.228;2023-04-08T02:24:59;47.83;;;39.63;;
18653;SDS011;9456;47.824;16.228;2023-04-08T02:27:28;51.13;;;41.57;;
18653;SDS011;9456;47.824;16.228;2023-04-08T02:29:57;54.27;;;43.03;;
18653;SDS011;9456;47.824;16.228;2023-04-08T02:32:26;53.73;;;43.70;;
18653;SDS011;9456;47.824;16.228;2023-04-08T02:34:54;55.57;;;45.47;;
18653;SDS011;9456;47.824;16.228;2023-04-08T02:37:24;60.73;;;46.73;;
18653;SDS011;9456;47.824;16.228;2023-04-08T02:39:52;59.73;;;45.30;;
18653;SDS011;9456;47.824;16.228;2023-04-08T02:42:21;60.03;;;47.03;;
18653;SDS011;9456;47.824;16.228;2023-04-08T02:44:50;61.00;;;47.43;;
18653;SDS011;9456;47.824;16.228;2023-04-08T02:47:19;67.67;;;48.73;;
18653;SDS011;9456;47.824;16.228;2023-04-08T02:49:48;60.83;;;46.43;;
18653;SDS011;9456;47.824;16.228;2023-04-08T02:52:17;54.63;;;41.70;;
18653;SDS011;9456;47.824;16.228;2023-04-08T02:54:47;47.40;;;37.60;;
18653;SDS011;9456;47.824;16.228;2023-04-08T02:57:16;47.13;;;35.73;;
18653;SDS011;9456;47.824;16.228;2023-04-08T02:59:45;53.10;;;35.40;;
18653;SDS011;9456;47.824;16.228;2023-04-08T03:02:14;76.60;;;39.70;;
18653;SDS011;9456;47.824;16.228;2023-04-08T03:04:43;39.87;;;28.30;;
18653;SDS011;9456;47.824;16.228;2023-04-08T03:07:12;38.67;;;28.60;;
18653;SDS011;9456;47.824;16.228;2023-04-08T03:09:41;34.63;;;27.57;;
18653;SDS011;9456;47.824;16.228;2023-04-08T03:12:10;34.30;;;25.97;;
18653;SDS011;9456;47.824;16.228;2023-04-08T03:14:39;35.63;;;25.57;;
18653;SDS011;9456;47.824;16.228;2023-04-08T03:17:08;37.87;;;26.80;;
18653;SDS011;9456;47.824;16.228;2023-04-08T03:19:37;36.13;;;25.90;;
18653;SDS011;9456;47.824;16.228;2023-04-08T03:22:06;31.53;;;24.50;;
18653;SDS011;9456;47.824;16.228;2023-04-08T03:24:35;31.30;;;24.33;;
18653;SDS011;9456;47.824;16.228;2023-04-08T03:27:05;36.60;;;26.17;;
18653;SDS011;9456;47.824;16.228;2023-04-08T03:29:34;34.00;;;25.60;;
18653;SDS011;9456;47.824;16.228;2023-04-08T03:32:03;31.17;;;24.23;;
18653;SDS011;9456;47.824;16.228;2023-04-08T03:34:33;29.00;;;23.57;;
18653;SDS011;9456;47.824;16.228;2023-04-08T03:37:02;30.37;;;23.83;;
18653;SDS011;9456;47.824;16.228;2023-04-08T03:39:31;30.90;;;24.77;;
18653;SDS011;9456;47.824;16.228;2023-04-08T03:42:00;30.03;;;23.13;;
18653;SDS011;9456;47.824;16.228;2023-04-08T03:44:29;31.37;;;23.87;;
18653;SDS011;9456;47.824;16.228;2023-04-08T03:46:58;31.97;;;24.00;;
18653;SDS011;9456;47.824;16.228;2023-04-08T03:49:27;31.20;;;23.50;;
18653;SDS011;9456;47.824;16.228;2023-04-08T03:51:56;30.80;;;23.87;;
18653;SDS011;9456;47.824;16.228;2023-04-08T03:54:25;29.43;;;23.27;;
18653;SDS011;9456;47.824;16.228;2023-04-08T03:56:54;29.50;;;23.97;;
18653;SDS011;9456;47.824;16.228;2023-04-08T03:59:23;32.20;;;23.93;;
18653;SDS011;9456;47.824;16.228;2023-04-08T04:01:52;29.70;;;23.37;;
18653;SDS011;9456;47.824;16.228;2023-04-08T04:04:21;34.47;;;26.07;;
18653;SDS011;9456;47.824;16.228;2023-04-08T04:06:50;35.60;;;25.63;;
18653;SDS011;9456;47.824;16.228;2023-04-08T04:09:19;30.77;;;25.27;;
18653;SDS011;9456;47.824;16.228;2023-04-08T04:11:48;34.43;;;25.47;;
18653;SDS011;9456;47.824;16.228;2023-04-08T04:14:17;32.63;;;24.00;;
18653;SDS011;9456;47.824;16.228;2023-04-08T04:16:46;30.73;;;23.67;;
18653;SDS011;9456;47.824;16.228;2023-04-08T04:19:15;28.53;;;22.33;;
18653;SDS011;9456;47.824;16.228;2023-04-08T04:21:44;30.00;;;23.27;;
18653;SDS011;9456;47.824;16.228;2023-04-08T04:24:13;33.47;;;25.13;;
18653;SDS011;9456;47.824;16.228;2023-04-08T04:26:42;31.70;;;23.43;;
18653;SDS011;9456;47.824;16.228;2023-04-08T04:29:11;32.80;;;23.13;;
18653;SDS011;9456;47.824;16.228;2023-04-08T04:31:40;31.53;;;23.33;;
18653;SDS011;9456;47.824;16.228;2023-04-08T04:34:09;28.70;;;22.37;;
18653;SDS011;9456;47.824;16.228;2023-04-08T04:36:38;31.10;;;23.13;;
18653;SDS011;9456;47.824;16.228;2023-04-08T04:39:07;32.13;;;23.07;;
18653;SDS011;9456;47.824;16.228;2023-04-08T04:41:36;28.63;;;21.30;;
18653;SDS011;9456;47.824;16.228;2023-04-08T04:44:05;29.23;;;21.37;;
18653;SDS011;9456;47.824;16.228;2023-04-08T04:46:34;26.23;;;20.17;;
18653;SDS011;9456;47.824;16.228;2023-04-08T04:49:03;26.77;;;19.73;;
18653;SDS011;9456;47.824;16.228;2023-04-08T04:51:32;31.53;;;22.00;;
18653;SDS011;9456;47.824;16.228;2023-04-08T04:54:01;34.40;;;22.50;;
18653;SDS011;9456;47.824;16.228;2023-04-08T04:56:30;35.27;;;22.33;;
18653;SDS011;9456;47.824;16.228;2023-04-08T04:58:59;35.07;;;21.93;;
18653;SDS011;9456;47.824;16.228;2023-04-08T05:01:28;32.20;;;20.43;;
18653;SDS011;9456;47.824;16.228;2023-04-08T05:03:57;29.87;;;21.90;;
18653;SDS011;9456;47.824;16.228;2023-04-08T05:06:26;30.53;;;20.67;;
18653;SDS011;9456;47.824;16.228;2023-04-08T05:08:55;28.23;;;17.93;;
18653;SDS011;9456;47.824;16.228;2023-04-08T05:11:24;37.40;;;21.47;;
18653;SDS011;9456;47.824;16.228;2023-04-08T05:13:54;33.80;;;20.93;;
18653;SDS011;9456;47.824;16.228;2023-04-08T05:16:23;33.77;;;20.67;;
18653;SDS011;9456;47.824;16.228;2023-04-08T05:18:52;29.50;;;19.23;;
18653;SDS011;9456;47.824;16.228;2023-04-08T05:21:21;28.20;;;19.90;;
18653;SDS011;9456;47.824;16.228;2023-04-08T05:23:50;27.83;;;17.83;;
18653;SDS011;9456;47.824;16.228;2023-04-08T05:26:19;27.90;;;17.13;;
18653;SDS011;9456;47.824;16.228;2023-04-08T05:28:48;29.27;;;18.70;;
18653;SDS011;9456;47.824;16.228;2023-04-08T05:31:18;35.23;;;20.40;;
18653;SDS011;9456;47.824;16.228;2023-04-08T05:33:47;32.13;;;18.77;;
18653;SDS011;9456;47.824;16.228;2023-04-08T05:36:16;25.90;;;17.40;;
18653;SDS011;9456;47.824;16.228;2023-04-08T05:38:45;35.50;;;19.37;;
18653;SDS011;9456;47.824;16.228;2023-04-08T05:41:14;23.30;;;16.00;;
18653;SDS011;9456;47.824;16.228;2023-04-08T05:43:43;25.17;;;18.00;;
18653;SDS011;9456;47.824;16.228;2023-04-08T05:46:12;27.20;;;18.13;;
18653;SDS011;9456;47.824;16.228;2023-04-08T05:48:41;36.90;;;22.53;;
18653;SDS011;9456;47.824;16.228;2023-04-08T05:51:13;30.30;;;19.43;;
18653;SDS011;9456;47.824;16.228;2023-04-08T05:56:56;25.30;;;16.33;;
18653;SDS011;9456;47.824;16.228;2023-04-08T05:59:25;28.50;;;16.93;;
18653;SDS011;9456;47.824;16.228;2023-04-08T06:01:54;32.83;;;18.53;;
18653;SDS011;9456;47.824;16.228;2023-04-08T06:04:23;42.30;;;24.83;;
18653;SDS011;9456;47.824;16.228;2023-04-08T06:06:52;47.70;;;23.20;;
18653;SDS011;9456;47.824;16.228;2023-04-08T06:09:21;31.10;;;19.97;;
18653;SDS011;9456;47.824;16.228;2023-04-08T06:11:50;25.27;;;18.03;;
18653;SDS011;9456;47.824;16.228;2023-04-08T06:14:19;37.37;;;21.73;;
18653;SDS011;9456;47.824;16.228;2023-04-08T06:16:48;33.67;;;19.50;;
18653;SDS011;9456;47.824;16.228;2023-04-08T06:19:17;31.70;;;20.50;;
18653;SDS011;9456;47.824;16.228;2023-04-08T06:21:46;33.10;;;20.60;;
18653;SDS011;9456;47.824;16.228;2023-04-08T06:24:15;38.63;;;23.47;;
18653;SDS011;9456;47.824;16.228;2023-04-08T06:26:44;35.93;;;22.23;;
18653;SDS011;9456;47.824;16.228;2023-04-08T06:29:13;45.90;;;24.97;;
18653;SDS011;9456;47.824;16.228;2023-04-08T06:31:42;41.10;;;22.67;;
18653;SDS011;9456;47.824;16.228;2023-04-08T06:34:12;27.40;;;18.17;;
18653;SDS011;9456;47.824;16.228;2023-04-08T06:36:41;33.63;;;19.30;;
18653;SDS011;9456;47.824;16.228;2023-04-08T06:39:10;28.30;;;17.73;;
18653;SDS011;9456;47.824;16.228;2023-04-08T06:41:39;29.70;;;16.73;;
18653;SDS011;9456;47.824;16.228;2023-04-08T06:44:09;30.23;;;15.30;;
18653;SDS011;9456;47.824;16.228;2023-04-08T06:46:38;22.90;;;15.33;;
18653;SDS011;9456;47.824;16.228;2023-04-08T06:49:07;23.90;;;14.83;;
18653;SDS011;9456;47.824;16.228;2023-04-08T06:51:36;26.20;;;15.67;;
18653;SDS011;9456;47.824;16.228;2023-04-08T06:54:05;17.43;;;14.53;;
18653;SDS011;9456;47.824;16.228;2023-04-08T06:56:35;29.30;;;16.20;;
18653;SDS011;9456;47.824;16.228;2023-04-08T06:59:04;24.10;;;15.33;;
18653;SDS011;9456;47.824;16.228;2023-04-08T07:01:33;26.57;;;15.40;;
18653;SDS011;9456;47.824;16.228;2023-04-08T07:04:02;28.97;;;17.33;;
18653;SDS011;9456;47.824;16.228;2023-04-08T07:06:31;24.40;;;16.73;;
18653;SDS011;9456;47.824;16.228;2023-04-08T07:09:00;27.33;;;16.97;;
18653;SDS011;9456;47.824;16.228;2023-04-08T07:11:30;20.93;;;14.63;;
18653;SDS011;9456;47.824;16.228;2023-04-08T07:13:59;32.60;;;17.53;;
18653;SDS011;9456;47.824;16.228;2023-04-08T07:16:28;37.90;;;21.03;;
18653;SDS011;9456;47.824;16.228;2023-04-08T07:18:57;44.97;;;23.07;;
18653;SDS011;9456;47.824;16.228;2023-04-08T07:21:26;48.90;;;25.03;;
18653;SDS011;9456;47.824;16.228;2023-04-08T07:23:55;49.40;;;26.67;;
18653;SDS011;9456;47.824;16.228;2023-04-08T07:26:24;41.93;;;22.87;;
18653;SDS011;9456;47.824;16.228;2023-04-08T07:28:53;36.73;;;21.83;;
18653;SDS011;9456;47.824;16.228;2023-04-08T07:31:22;37.27;;;21.40;;
18653;SDS011;9456;47.824;16.228;2023-04-08T07:33:51;32.40;;;18.27;;
18653;SDS011;9456;47.824;16.228;2023-04-08T07:36:21;27.17;;;17.73;;
18653;SDS011;9456;47.824;16.228;2023-04-08T07:38:50;30.37;;;19.53;;
18653;SDS011;9456;47.824;16.228;2023-04-08T07:41:19;34.93;;;18.47;;
18653;SDS011;9456;47.824;16.228;2023-04-08T07:43:48;29.77;;;18.53;;
18653;SDS011;9456;47.824;16.228;2023-04-08T07:46:18;36.03;;;20.63;;
18653;SDS011;9456;47.824;16.228;2023-04-08T07:48:47;31.20;;;18.83;;
18653;SDS011;9456;47.824;16.228;2023-04-08T07:51:18;30.47;;;18.37;;
18653;SDS011;9456;47.824;16.228;2023-04-08T07:53:47;30.83;;;17.20;;
18653;SDS011;9456;47.824;16.228;2023-04-08T07:56:16;25.53;;;16.13;;
18653;SDS011;9456;47.824;16.228;2023-04-08T07:58:45;21.90;;;14.83;;
18653;SDS011;9456;47.824;16.228;2023-04-08T08:01:15;19.73;;;13.20;;
18653;SDS011;9456;47.824;16.228;2023-04-08T08:03:44;10.53;;;8.50;;
18653;SDS011;9456;47.824;16.228;2023-04-08T08:06:14;11.60;;;9.20;;
18653;SDS011;9456;47.824;16.228;2023-04-08T08:08:43;7.27;;;6.57;;
18653;SDS011;9456;47.824;16.228;2023-04-08T08:11:11;7.87;;;7.17;;
18653;SDS011;9456;47.824;16.228;2023-04-08T08:13:40;7.53;;;6.57;;
18653;SDS011;9456;47.824;16.228;2023-04-08T08:16:12;7.37;;;6.77;;
18653;SDS011;9456;47.824;16.228;2023-04-08T08:18:41;6.90;;;6.20;;
18653;SDS011;9456;47.824;16.228;2023-04-08T08:21:10;9.33;;;8.20;;
18653;SDS011;9456;47.824;16.228;2023-04-08T08:23:39;12.73;;;9.57;;
18653;SDS011;9456;47.824;16.228;2023-04-08T08:26:08;17.70;;;13.83;;
18653;SDS011;9456;47.824;16.228;2023-04-08T08:28:37;11.13;;;9.27;;
18653;SDS011;9456;47.824;16.228;2023-04-08T08:31:06;20.30;;;13.83;;
18653;SDS011;9456;47.824;16.228;2023-04-08T08:33:35;21.97;;;14.93;;
18653;SDS011;9456;47.824;16.228;2023-04-08T08:36:04;20.33;;;14.47;;
18653;SDS011;9456;47.824;16.228;2023-04-08T08:38:34;28.70;;;16.03;;
18653;SDS011;9456;47.824;16.228;2023-04-08T08:41:03;23.73;;;14.90;;
18653;SDS011;9456;47.824;16.228;2023-04-08T08:43:32;27.57;;;17.03;;
18653;SDS011;9456;47.824;16.228;2023-04-08T08:46:01;19.73;;;13.87;;
18653;SDS011;9456;47.824;16.228;2023-04-08T08:48:31;25.07;;;15.97;;
18653;SDS011;9456;47.824;16.228;2023-04-08T08:50:59;24.87;;;15.50;;
18653;SDS011;9456;47.824;16.228;2023-04-08T08:53:30;33.63;;;19.97;;
18653;SDS011;9456;47.824;16.228;2023-04-08T08:55:59;30.77;;;19.97;;
18653;SDS011;9456;47.824;16.228;2023-04-08T08:58:28;36.63;;;23.13;;
18653;SDS011;9456;47.824;16.228;2023-04-08T09:00:57;37.20;;;22.27;;
18653;SDS011;9456;47.824;16.228;2023-04-08T09:03:27;31.60;;;20.80;;
18653;SDS011;9456;47.824;16.228;2023-04-08T09:05:56;26.03;;;18.17;;
18653;SDS011;9456;47.824;16.228;2023-04-08T09:08:25;21.97;;;16.53;;
18653;SDS011;9456;47.824;16.228;2023-04-08T09:10:54;20.10;;;16.33;;
18653;SDS011;9456;47.824;16.228;2023-04-08T09:13:23;21.70;;;14.93;;
18653;SDS011;9456;47.824;16.228;2023-04-08T09:16:01;22.77;;;16.20;;
18653;SDS011;9456;47.824;16.228;2023-04-08T09:18:31;17.37;;;12.33;;
18653;SDS011;9456;47.824;16.228;2023-04-08T09:21:00;16.13;;;13.80;;
18653;SDS011;9456;47.824;16.228;2023-04-08T09:23:39;20.00;;;16.60;;
18653;SDS011;9456;47.824;16.228;2023-04-08T09:28:59;15.60;;;13.53;;
18653;SDS011;9456;47.824;16.228;2023-04-08T09:31:28;13.27;;;11.80;;
18653;SDS011;9456;47.824;16.228;2023-04-08T09:33:59;14.80;;;13.10;;
18653;SDS011;9456;47.824;16.228;2023-04-08T09:36:27;17.40;;;13.37;;
18653;SDS011;9456;47.824;16.228;2023-04-08T09:38:57;13.60;;;12.00;;
18653;SDS011;9456;47.824;16.228;2023-04-08T09:41:26;17.07;;;14.60;;
18653;SDS011;9456;47.824;16.228;2023-04-08T09:43:55;20.27;;;15.13;;
18653;SDS011;9456;47.824;16.228;2023-04-08T09:46:26;21.73;;;14.80;;
18653;SDS011;9456;47.824;16.228;2023-04-08T09:49:00;16.93;;;13.03;;
18653;SDS011;9456;47.824;16.228;2023-04-08T09:51:30;14.27;;;11.60;;
18653;SDS011;9456;47.824;16.228;2023-04-08T09:54:00;10.97;;;9.87;;
18653;SDS011;9456;47.824;16.228;2023-04-08T09:56:29;13.43;;;10.13;;
18653;SDS011;9456;47.824;16.228;2023-04-08T09:58:59;10.80;;;9.70;;
18653;SDS011;9456;47.824;16.228;2023-04-08T10:01:31;10.90;;;9.80;;
18653;SDS011;9456;47.824;16.228;2023-04-08T10:03:58;10.20;;;9.20;;
18653;SDS011;9456;47.824;16.228;2023-04-08T10:06:27;14.33;;;11.30;;
18653;SDS011;9456;47.824;16.228;2023-04-08T10:08:56;12.30;;;9.93;;
18653;SDS011;9456;47.824;16.228;2023-04-08T10:11:25;14.67;;;11.63;;
18653;SDS011;9456;47.824;16.228;2023-04-08T10:13:54;13.63;;;10.80;;
18653;SDS011;9456;47.824;16.228;2023-04-08T10:16:24;14.93;;;11.57;;
18653;SDS011;9456;47.824;16.228;2023-04-08T10:18:53;8.80;;;7.90;;
18653;SDS011;9456;47.824;16.228;2023-04-08T10:21:31;9.60;;;8.70;;
18653;SDS011;9456;47.824;16.228;2023-04-08T10:24:06;11.00;;;9.43;;
18653;SDS011;9456;47.824;16.228;2023-04-08T10:26:39;14.30;;;11.17;;
18653;SDS011;9456;47.824;16.228;2023-04-08T10:32:29;11.77;;;10.23;;
18653;SDS011;9456;47.824;16.228;2023-04-08T10:34:58;12.10;;;10.73;;
18653;SDS011;9456;47.824;16.228;2023-04-08T10:37:27;15.87;;;12.07;;
18653;SDS011;9456;47.824;16.228;2023-04-08T10:39:56;10.73;;;9.63;;
18653;SDS011;9456;47.824;16.228;2023-04-08T10:42:28;12.77;;;11.47;;
18653;SDS011;9456;47.824;16.228;2023-04-08T10:45:01;10.03;;;9.10;;
18653;SDS011;9456;47.824;16.228;2023-04-08T10:47:30;10.73;;;9.63;;
18653;SDS011;9456;47.824;16.228;2023-04-08T10:49:59;11.83;;;10.63;;
18653;SDS011;9456;47.824;16.228;2023-04-08T10:52:28;10.60;;;9.60;;
18653;SDS011;9456;47.824;16.228;2023-04-08T10:54:57;9.17;;;8.27;;
18653;SDS011;9456;47.824;16.228;2023-04-08T10:57:26;10.40;;;9.40;;
18653;SDS011;9456;47.824;16.228;2023-04-08T10:59:55;11.40;;;10.30;;
18653;SDS011;9456;47.824;16.228;2023-04-08T11:02:31;12.53;;;10.93;;
18653;SDS011;9456;47.824;16.228;2023-04-08T11:05:00;11.63;;;10.43;;
18653;SDS011;9456;47.824;16.228;2023-04-08T11:07:30;13.57;;;11.17;;
18653;SDS011;9456;47.824;16.228;2023-04-08T11:10:02;12.40;;;11.20;;
18653;SDS011;9456;47.824;16.228;2023-04-08T11:12:32;11.03;;;9.93;;
18653;SDS011;9456;47.824;16.228;2023-04-08T11:15:01;12.63;;;11.33;;
18653;SDS011;9456;47.824;16.228;2023-04-08T11:17:30;19.63;;;14.57;;
18653;SDS011;9456;47.824;16.228;2023-04-08T11:19:59;14.83;;;12.93;;
18653;SDS011;9456;47.824;16.228;2023-04-08T11:22:28;13.37;;;11.27;;
18653;SDS011;9456;47.824;16.228;2023-04-08T11:24:57;14.93;;;12.23;;
18653;SDS011;9456;47.824;16.228;2023-04-08T11:27:26;14.53;;;12.20;;
18653;SDS011;9456;47.824;16.228;2023-04-08T11:29:55;15.57;;;13.53;;
18653;SDS011;9456;47.824;16.228;2023-04-08T11:32:24;14.90;;;12.70;;
18653;SDS011;9456;47.824;16.228;2023-04-08T11:34:53;15.20;;;12.30;;
18653;SDS011;9456;47.824;16.228;2023-04-08T11:37:25;15.10;;;13.10;;
18653;SDS011;9456;47.824;16.228;2023-04-08T11:39:54;15.23;;;13.03;;
18653;SDS011;9456;47.824;16.228;2023-04-08T11:42:28;16.60;;;12.67;;
18653;SDS011;9456;47.824;16.228;2023-04-08T11:44:57;13.93;;;12.30;;
18653;SDS011;9456;47.824;16.228;2023-04-08T11:47:30;14.03;;;12.53;;
18653;SDS011;9456;47.824;16.228;2023-04-08T11:49:59;15.43;;;13.13;;
18653;SDS011;9456;47.824;16.228;2023-04-08T11:52:41;19.30;;;16.13;;
18653;SDS011;9456;47.824;16.228;2023-04-08T11:58:01;17.27;;;14.80;;
18653;SDS011;9456;47.824;16.228;2023-04-08T12:00:30;21.03;;;17.50;;
18653;SDS011;9456;47.824;16.228;2023-04-08T12:02:59;16.80;;;14.20;;
18653;SDS011;9456;47.824;16.228;2023-04-08T12:05:28;16.53;;;13.93;;
18653;SDS011;9456;47.824;16.228;2023-04-08T12:07:57;18.20;;;15.10;;
18653;SDS011;9456;47.824;16.228;2023-04-08T12:10:26;20.00;;;16.13;;
18653;SDS011;9456;47.824;16.228;2023-04-08T12:12:55;24.47;;;19.43;;
18653;SDS011;9456;47.824;16.228;2023-04-08T12:15:24;25.83;;;20.73;;
18653;SDS011;9456;47.824;16.228;2023-04-08T12:17:53;27.17;;;19.23;;
18653;SDS011;9456;47.824;16.228;2023-04-08T12:20:22;21.17;;;17.00;;
18653;SDS011;9456;47.824;16.228;2023-04-08T12:22:51;23.10;;;18.57;;
18653;SDS011;9456;47.824;16.228;2023-04-08T12:25:20;21.73;;;15.90;;
18653;SDS011;9456;47.824;16.228;2023-04-08T12:27:49;18.40;;;15.60;;
18653;SDS011;9456;47.824;16.228;2023-04-08T12:30:18;21.83;;;16.57;;
18653;SDS011;9456;47.824;16.228;2023-04-08T12:32:47;20.83;;;16.27;;
18653;SDS011;9456;47.824;16.228;2023-04-08T12:35:16;19.20;;;15.20;;
18653;SDS011;9456;47.824;16.228;2023-04-08T12:37:45;18.10;;;15.60;;
18653;SDS011;9456;47.824;16.228;2023-04-08T12:40:14;20.80;;;17.70;;
18653;SDS011;9456;47.824;16.228;2023-04-08T12:42:44;21.53;;;16.93;;
18653;SDS011;9456;47.824;16.228;2023-04-08T12:45:13;25.13;;;18.93;;
18653;SDS011;9456;47.824;16.228;2023-04-08T12:47:42;30.70;;;21.20;;
18653;SDS011;9456;47.824;16.228;2023-04-08T12:50:11;25.30;;;19.00;;
18653;SDS011;9456;47.824;16.228;2023-04-08T12:52:39;23.37;;;18.30;;
18653;SDS011;9456;47.824;16.228;2023-04-08T12:55:09;22.13;;;16.73;;
18653;SDS011;9456;47.824;16.228;2023-04-08T12:57:38;21.67;;;16.33;;
18653;SDS011;9456;47.824;16.228;2023-04-08T13:00:08;25.77;;;18.57;;
18653;SDS011;9456;47.824;16.228;2023-04-08T13:02:38;23.27;;;16.47;;
18653;SDS011;9456;47.824;16.228;2023-04-08T13:05:07;23.63;;;17.07;;
18653;SDS011;9456;47.824;16.228;2023-04-08T13:07:37;23.90;;;18.07;;
18653;SDS011;9456;47.824;16.228;2023-04-08T13:10:08;23.43;;;18.00;;
18653;SDS011;9456;47.824;16.228;2023-04-08T13:12:37;31.33;;;21.40;;
18653;SDS011;9456;47.824;16.228;2023-04-08T13:15:07;24.40;;;18.30;;
18653;SDS011;9456;47.824;16.228;2023-04-08T13:17:37;24.57;;;18.17;;
18653;SDS011;9456;47.824;16.228;2023-04-08T13:20:07;35.37;;;23.57;;
18653;SDS011;9456;47.824;16.228;2023-04-08T13:22:37;35.87;;;24.03;;
18653;SDS011;9456;47.824;16.228;2023-04-08T13:25:07;42.20;;;27.30;;
18653;SDS011;9456;47.824;16.228;2023-04-08T13:27:36;45.70;;;28.60;;
18653;SDS011;9456;47.824;16.228;2023-04-08T13:30:06;47.87;;;30.17;;
18653;SDS011;9456;47.824;16.228;2023-04-08T13:32:36;43.73;;;28.93;;
18653;SDS011;9456;47.824;16.228;2023-04-08T13:35:06;46.50;;;29.03;;
18653;SDS011;9456;47.824;16.228;2023-04-08T13:37:35;40.27;;;27.23;;
18653;SDS011;9456;47.824;16.228;2023-04-08T13:40:05;24.03;;;18.47;;
18653;SDS011;9456;47.824;16.228;2023-04-08T13:42:34;23.17;;;16.70;;
18653;SDS011;9456;47.824;16.228;2023-04-08T13:45:04;23.77;;;17.70;;
18653;SDS011;9456;47.824;16.228;2023-04-08T13:47:34;21.53;;;17.00;;
18653;SDS011;9456;47.824;16.228;2023-04-08T13:50:04;23.93;;;17.50;;
18653;SDS011;9456;47.824;16.228;2023-04-08T13:52:35;18.53;;;15.87;;
18653;SDS011;9456;47.824;16.228;2023-04-08T13:55:05;23.40;;;17.03;;
18653;SDS011;9456;47.824;16.228;2023-04-08T13:57:35;23.73;;;17.83;;
18653;SDS011;9456;47.824;16.228;2023-04-08T14:00:05;21.73;;;16.30;;
18653;SDS011;9456;47.824;16.228;2023-04-08T14:02:35;20.67;;;16.93;;
18653;SDS011;9456;47.824;16.228;2023-04-08T14:05:05;19.97;;;15.00;;
18653;SDS011;9456;47.824;16.228;2023-04-08T14:07:34;17.67;;;13.40;;
18653;SDS011;9456;47.824;16.228;2023-04-08T14:10:04;19.53;;;15.20;;
18653;SDS011;9456;47.824;16.228;2023-04-08T14:12:34;21.20;;;16.97;;
18653;SDS011;9456;47.824;16.228;2023-04-08T14:15:03;17.50;;;14.43;;
18653;SDS011;9456;47.824;16.228;2023-04-08T14:17:33;19.97;;;13.70;;
18653;SDS011;9456;47.824;16.228;2023-04-08T14:20:02;20.47;;;15.00;;
18653;SDS011;9456;47.824;16.228;2023-04-08T14:22:32;22.10;;;16.83;;
18653;SDS011;9456;47.824;16.228;2023-04-08T14:25:01;20.20;;;15.43;;
18653;SDS011;9456;47.824;16.228;2023-04-08T14:27:31;20.77;;;14.73;;
18653;SDS011;9456;47.824;16.228;2023-04-08T14:30:00;16.57;;;13.63;;
18653;SDS011;9456;47.824;16.228;2023-04-08T14:32:29;19.63;;;16.33;;
18653;SDS011;9456;47.824;16.228;2023-04-08T14:34:58;20.10;;;17.50;;
18653;SDS011;9456;47.824;16.228;2023-04-08T14:37:27;18.60;;;16.37;;
18653;SDS011;9456;47.824;16.228;2023-04-08T14:39:56;18.23;;;16.00;;
18653;SDS011;9456;47.824;16.228;2023-04-08T14:42:25;18.57;;;15.83;;
18653;SDS011;9456;47.824;16.228;2023-04-08T14:44:54;22.83;;;19.67;;
18653;SDS011;9456;47.824;16.228;2023-04-08T14:47:23;18.40;;;15.17;;